sensor_id;sensor_type;location;lat;lon;timestamp;temperature;humidity
15160;DHT22;7680;48.800;9.680;2024-02-26T00:05:00;5.20;99.90
15160;DHT22;7680;48.800;9.680;2024-02-26T00:10:06;5.20;99.90
15160;DHT22;7680;48.800;9.680;2024-02-26T00:15:10;5.20;99.90
15160;DHT22;7680;48.800;9.680;2024-02-26T00:20:13;5.20;99.90
15160;DHT22;7680;48.800;9.680;2024-02-26T00:25:18;5.10;99.90
15160;DHT22;7680;48.800;9.680;2024-02-26T00:30:21;5.10;99.90
15160;DHT22;7680;48.800;9.680;2024-02-26T00:35:25;5.00;99.90
15160;DHT22;7680;48.800;9.680;2024-02-26T00:40:30;5.10;99.90
15160;DHT22;7680;48.800;9.680;2024-02-26T00:45:33;5.10;99.90
15160;DHT22;7680;48.800;9.680;2024-02-26T00:50:36;5.10;99.90
15160;DHT22;7680;48.800;9.680;2024-02-26T00:55:41;5.20;99.90
15160;DHT22;7680;48.800;9.680;2024-02-26T01:00:44;5.20;99.90
15160;DHT22;7680;48.800;9.680;2024-02-26T01:05:47;5.10;99.90
15160;DHT22;7680;48.800;9.680;2024-02-26T01:10:52;5.20;99.90
15160;DHT22;7680;48.800;9.680;2024-02-26T01:15:55;5.20;99.90
15160;DHT22;7680;48.800;9.680;2024-02-26T01:20:58;5.40;99.90
15160;DHT22;7680;48.800;9.680;2024-02-26T01:26:03;5.30;99.90
15160;DHT22;7680;48.800;9.680;2024-02-26T01:31:06;5.20;99.90
15160;DHT22;7680;48.800;9.680;2024-02-26T01:36:10;5.10;99.90
15160;DHT22;7680;48.800;9.680;2024-02-26T01:41:14;5.10;99.90
15160;DHT22;7680;48.800;9.680;2024-02-26T01:46:18;5.10;99.90
15160;DHT22;7680;48.800;9.680;2024-02-26T01:51:22;5.10;99.90
15160;DHT22;7680;48.800;9.680;2024-02-26T01:56:27;5.10;99.90
15160;DHT22;7680;48.800;9.680;2024-02-26T02:01:33;5.50;99.90
15160;DHT22;7680;48.800;9.680;2024-02-26T02:06:38;5.60;99.90
15160;DHT22;7680;48.800;9.680;2024-02-26T02:11:42;5.50;99.90
15160;DHT22;7680;48.800;9.680;2024-02-26T02:16:47;5.20;99.90
15160;DHT22;7680;48.800;9.680;2024-02-26T02:21:51;5.10;99.90
15160;DHT22;7680;48.800;9.680;2024-02-26T02:26:55;5.20;99.90
15160;DHT22;7680;48.800;9.680;2024-02-26T02:31:59;5.20;99.90
15160;DHT22;7680;48.800;9.680;2024-02-26T02:37:05;5.20;99.90
15160;DHT22;7680;48.800;9.680;2024-02-26T02:42:08;5.30;99.90
15160;DHT22;7680;48.800;9.680;2024-02-26T02:47:12;5.30;99.90
15160;DHT22;7680;48.800;9.680;2024-02-26T02:52:16;5.40;99.90
15160;DHT22;7680;48.800;9.680;2024-02-26T02:57:20;5.30;99.90
15160;DHT22;7680;48.800;9.680;2024-02-26T03:02:23;5.30;99.90
15160;DHT22;7680;48.800;9.680;2024-02-26T03:07:27;5.30;99.90
15160;DHT22;7680;48.800;9.680;2024-02-26T03:12:32;5.30;99.90
15160;DHT22;7680;48.800;9.680;2024-02-26T03:17:36;5.40;99.90
15160;DHT22;7680;48.800;9.680;2024-02-26T03:22:40;5.20;99.90
15160;DHT22;7680;48.800;9.680;2024-02-26T03:27:44;5.20;99.90
15160;DHT22;7680;48.800;9.680;2024-02-26T03:32:47;5.20;99.90
15160;DHT22;7680;48.800;9.680;2024-02-26T03:37:51;5.20;99.90
15160;DHT22;7680;48.800;9.680;2024-02-26T03:42:54;5.20;99.90
15160;DHT22;7680;48.800;9.680;2024-02-26T03:47:59;5.30;99.90
15160;DHT22;7680;48.800;9.680;2024-02-26T03:53:04;5.30;99.90
15160;DHT22;7680;48.800;9.680;2024-02-26T03:58:07;5.20;99.90
15160;DHT22;7680;48.800;9.680;2024-02-26T04:03:10;5.20;99.90
15160;DHT22;7680;48.800;9.680;2024-02-26T04:08:15;5.20;99.90
15160;DHT22;7680;48.800;9.680;2024-02-26T04:13:18;5.00;99.90
15160;DHT22;7680;48.800;9.680;2024-02-26T04:18:21;5.30;99.90
15160;DHT22;7680;48.800;9.680;2024-02-26T04:23:26;5.30;99.90
15160;DHT22;7680;48.800;9.680;2024-02-26T04:28:29;5.10;99.90
15160;DHT22;7680;48.800;9.680;2024-02-26T04:33:34;5.00;99.90
15160;DHT22;7680;48.800;9.680;2024-02-26T04:38:39;5.00;99.90
15160;DHT22;7680;48.800;9.680;2024-02-26T04:43:42;5.00;99.90
15160;DHT22;7680;48.800;9.680;2024-02-26T04:48:45;4.90;99.90
15160;DHT22;7680;48.800;9.680;2024-02-26T04:53:50;5.00;99.90
15160;DHT22;7680;48.800;9.680;2024-02-26T04:58:55;5.00;99.90
15160;DHT22;7680;48.800;9.680;2024-02-26T05:03:58;5.00;99.90
15160;DHT22;7680;48.800;9.680;2024-02-26T05:09:03;5.10;99.90
15160;DHT22;7680;48.800;9.680;2024-02-26T05:14:07;5.00;99.90
15160;DHT22;7680;48.800;9.680;2024-02-26T05:19:11;4.90;99.90
15160;DHT22;7680;48.800;9.680;2024-02-26T05:24:15;4.90;99.90
15160;DHT22;7680;48.800;9.680;2024-02-26T05:29:19;4.80;99.90
15160;DHT22;7680;48.800;9.680;2024-02-26T05:34:22;4.80;99.90
15160;DHT22;7680;48.800;9.680;2024-02-26T05:39:27;4.80;99.90
15160;DHT22;7680;48.800;9.680;2024-02-26T05:44:30;4.80;99.90
15160;DHT22;7680;48.800;9.680;2024-02-26T05:49:33;4.80;99.90
15160;DHT22;7680;48.800;9.680;2024-02-26T05:54:38;4.80;99.90
15160;DHT22;7680;48.800;9.680;2024-02-26T05:59:41;4.80;99.90
15160;DHT22;7680;48.800;9.680;2024-02-26T06:04:44;4.90;99.90
15160;DHT22;7680;48.800;9.680;2024-02-26T06:09:49;5.00;99.90
15160;DHT22;7680;48.800;9.680;2024-02-26T06:14:52;5.10;99.90
15160;DHT22;7680;48.800;9.680;2024-02-26T06:19:56;5.10;99.90
15160;DHT22;7680;48.800;9.680;2024-02-26T06:25:03;5.20;99.90
15160;DHT22;7680;48.800;9.680;2024-02-26T06:30:07;5.20;99.90
15160;DHT22;7680;48.800;9.680;2024-02-26T06:35:13;5.20;99.90
15160;DHT22;7680;48.800;9.680;2024-02-26T06:40:18;5.20;99.90
15160;DHT22;7680;48.800;9.680;2024-02-26T06:45:22;5.20;99.90
15160;DHT22;7680;48.800;9.680;2024-02-26T06:50:25;5.20;99.90
15160;DHT22;7680;48.800;9.680;2024-02-26T06:55:30;5.10;99.90
15160;DHT22;7680;48.800;9.680;2024-02-26T07:00:33;5.20;99.90
15160;DHT22;7680;48.800;9.680;2024-02-26T07:05:36;5.10;99.90
15160;DHT22;7680;48.800;9.680;2024-02-26T07:10:41;5.10;99.90
15160;DHT22;7680;48.800;9.680;2024-02-26T07:15:45;5.10;99.90
15160;DHT22;7680;48.800;9.680;2024-02-26T07:20:48;5.10;99.90
15160;DHT22;7680;48.800;9.680;2024-02-26T07:25:53;5.20;99.90
15160;DHT22;7680;48.800;9.680;2024-02-26T07:30:56;5.20;99.90
15160;DHT22;7680;48.800;9.680;2024-02-26T07:35:59;5.30;99.90
15160;DHT22;7680;48.800;9.680;2024-02-26T07:41:05;5.40;99.90
15160;DHT22;7680;48.800;9.680;2024-02-26T07:46:11;5.50;99.90
15160;DHT22;7680;48.800;9.680;2024-02-26T07:51:14;5.60;99.90
15160;DHT22;7680;48.800;9.680;2024-02-26T07:56:20;5.70;99.90
15160;DHT22;7680;48.800;9.680;2024-02-26T08:01:23;5.90;99.90
15160;DHT22;7680;48.800;9.680;2024-02-26T08:06:28;6.10;99.90
15160;DHT22;7680;48.800;9.680;2024-02-26T08:11:34;6.20;99.90
15160;DHT22;7680;48.800;9.680;2024-02-26T08:16:38;6.30;99.90
15160;DHT22;7680;48.800;9.680;2024-02-26T08:21:41;6.40;99.90
15160;DHT22;7680;48.800;9.680;2024-02-26T08:26:45;6.40;99.90
15160;DHT22;7680;48.800;9.680;2024-02-26T08:31:48;6.50;99.90
15160;DHT22;7680;48.800;9.680;2024-02-26T08:36:51;6.60;99.90
15160;DHT22;7680;48.800;9.680;2024-02-26T08:41:56;6.70;99.90
15160;DHT22;7680;48.800;9.680;2024-02-26T08:46:59;6.80;99.90
15160;DHT22;7680;48.800;9.680;2024-02-26T08:52:04;7.00;99.90
15160;DHT22;7680;48.800;9.680;2024-02-26T08:57:09;7.20;99.90
15160;DHT22;7680;48.800;9.680;2024-02-26T09:02:13;7.30;99.90
15160;DHT22;7680;48.800;9.680;2024-02-26T09:07:16;7.40;99.90
15160;DHT22;7680;48.800;9.680;2024-02-26T09:12:21;7.40;99.90
15160;DHT22;7680;48.800;9.680;2024-02-26T09:17:24;7.40;99.90
15160;DHT22;7680;48.800;9.680;2024-02-26T09:22:27;7.50;99.90
15160;DHT22;7680;48.800;9.680;2024-02-26T09:27:32;7.50;99.90
15160;DHT22;7680;48.800;9.680;2024-02-26T09:32:35;7.70;99.90
15160;DHT22;7680;48.800;9.680;2024-02-26T09:37:38;7.90;99.90
15160;DHT22;7680;48.800;9.680;2024-02-26T09:42:44;7.70;99.90
15160;DHT22;7680;48.800;9.680;2024-02-26T09:47:48;7.80;99.90
15160;DHT22;7680;48.800;9.680;2024-02-26T09:52:54;7.90;99.90
15160;DHT22;7680;48.800;9.680;2024-02-26T09:58:00;8.00;99.90
15160;DHT22;7680;48.800;9.680;2024-02-26T10:03:05;8.20;99.90
15160;DHT22;7680;48.800;9.680;2024-02-26T10:08:11;8.30;99.90
15160;DHT22;7680;48.800;9.680;2024-02-26T10:13:16;8.50;99.90
15160;DHT22;7680;48.800;9.680;2024-02-26T10:18:22;8.80;99.90
15160;DHT22;7680;48.800;9.680;2024-02-26T10:23:26;9.10;99.90
15160;DHT22;7680;48.800;9.680;2024-02-26T10:28:31;9.30;99.90
15160;DHT22;7680;48.800;9.680;2024-02-26T10:33:35;9.40;99.90
15160;DHT22;7680;48.800;9.680;2024-02-26T10:38:42;9.60;99.90
15160;DHT22;7680;48.800;9.680;2024-02-26T10:43:47;10.10;99.90
15160;DHT22;7680;48.800;9.680;2024-02-26T10:48:50;10.40;99.90
15160;DHT22;7680;48.800;9.680;2024-02-26T10:53:55;10.70;99.90
15160;DHT22;7680;48.800;9.680;2024-02-26T10:59:05;10.80;99.90
15160;DHT22;7680;48.800;9.680;2024-02-26T11:04:10;11.00;99.90
15160;DHT22;7680;48.800;9.680;2024-02-26T11:09:15;10.90;99.90
15160;DHT22;7680;48.800;9.680;2024-02-26T11:14:20;11.00;99.90
15160;DHT22;7680;48.800;9.680;2024-02-26T11:19:28;11.30;99.90
15160;DHT22;7680;48.800;9.680;2024-02-26T11:24:36;11.40;99.90
15160;DHT22;7680;48.800;9.680;2024-02-26T11:29:47;11.40;99.90
15160;DHT22;7680;48.800;9.680;2024-02-26T11:34:53;11.70;99.90
15160;DHT22;7680;48.800;9.680;2024-02-26T11:39:59;11.80;99.90
15160;DHT22;7680;48.800;9.680;2024-02-26T11:45:47;11.80;99.90
15160;DHT22;7680;48.800;9.680;2024-02-26T11:50:52;12.00;99.90
15160;DHT22;7680;48.800;9.680;2024-02-26T11:56:21;12.00;99.90
15160;DHT22;7680;48.800;9.680;2024-02-26T12:01:39;12.10;99.90
15160;DHT22;7680;48.800;9.680;2024-02-26T12:06:46;12.20;99.90
15160;DHT22;7680;48.800;9.680;2024-02-26T12:11:50;12.10;99.90
15160;DHT22;7680;48.800;9.680;2024-02-26T12:16:55;12.20;99.90
15160;DHT22;7680;48.800;9.680;2024-02-26T12:22:00;12.20;99.90
15160;DHT22;7680;48.800;9.680;2024-02-26T12:27:03;12.30;99.90
15160;DHT22;7680;48.800;9.680;2024-02-26T12:32:08;12.30;99.90
15160;DHT22;7680;48.800;9.680;2024-02-26T12:37:12;12.50;99.90
15160;DHT22;7680;48.800;9.680;2024-02-26T12:42:16;12.50;99.90
15160;DHT22;7680;48.800;9.680;2024-02-26T12:47:20;12.40;99.90
15160;DHT22;7680;48.800;9.680;2024-02-26T12:52:23;12.40;99.90
15160;DHT22;7680;48.800;9.680;2024-02-26T12:57:27;12.40;99.90
15160;DHT22;7680;48.800;9.680;2024-02-26T13:02:34;12.50;99.90
15160;DHT22;7680;48.800;9.680;2024-02-26T13:07:41;12.50;99.90
15160;DHT22;7680;48.800;9.680;2024-02-26T13:12:48;12.60;99.90
15160;DHT22;7680;48.800;9.680;2024-02-26T13:17:54;12.40;99.90
15160;DHT22;7680;48.800;9.680;2024-02-26T13:23:02;12.40;99.90
15160;DHT22;7680;48.800;9.680;2024-02-26T13:28:07;12.60;99.90
15160;DHT22;7680;48.800;9.680;2024-02-26T13:33:13;12.50;99.90
15160;DHT22;7680;48.800;9.680;2024-02-26T13:38:17;12.40;99.90
15160;DHT22;7680;48.800;9.680;2024-02-26T13:43:20;12.30;99.90
15160;DHT22;7680;48.800;9.680;2024-02-26T13:48:25;12.30;99.90
15160;DHT22;7680;48.800;9.680;2024-02-26T13:53:28;12.30;99.90
15160;DHT22;7680;48.800;9.680;2024-02-26T13:58:35;12.20;99.90
15160;DHT22;7680;48.800;9.680;2024-02-26T14:03:40;12.30;99.90
15160;DHT22;7680;48.800;9.680;2024-02-26T14:08:43;12.30;99.90
15160;DHT22;7680;48.800;9.680;2024-02-26T14:13:46;12.40;99.90
15160;DHT22;7680;48.800;9.680;2024-02-26T14:18:51;12.30;99.90
15160;DHT22;7680;48.800;9.680;2024-02-26T14:23:54;12.30;99.90
15160;DHT22;7680;48.800;9.680;2024-02-26T14:28:58;12.30;99.90
15160;DHT22;7680;48.800;9.680;2024-02-26T14:34:02;12.40;99.90
15160;DHT22;7680;48.800;9.680;2024-02-26T14:39:05;12.60;99.90
15160;DHT22;7680;48.800;9.680;2024-02-26T14:44:09;12.40;99.90
15160;DHT22;7680;48.800;9.680;2024-02-26T14:49:13;12.20;99.90
15160;DHT22;7680;48.800;9.680;2024-02-26T14:54:17;12.20;99.90
15160;DHT22;7680;48.800;9.680;2024-02-26T14:59:20;12.20;99.90
15160;DHT22;7680;48.800;9.680;2024-02-26T15:04:25;12.00;99.90
15160;DHT22;7680;48.800;9.680;2024-02-26T15:09:28;11.90;99.90
15160;DHT22;7680;48.800;9.680;2024-02-26T15:14:31;11.90;99.90
15160;DHT22;7680;48.800;9.680;2024-02-26T15:19:36;11.80;99.90
15160;DHT22;7680;48.800;9.680;2024-02-26T15:24:39;11.70;99.90
15160;DHT22;7680;48.800;9.680;2024-02-26T15:29:43;11.70;99.90
15160;DHT22;7680;48.800;9.680;2024-02-26T15:34:47;11.70;99.90
15160;DHT22;7680;48.800;9.680;2024-02-26T15:39:51;11.50;99.90
15160;DHT22;7680;48.800;9.680;2024-02-26T15:44:54;11.50;99.90
15160;DHT22;7680;48.800;9.680;2024-02-26T15:49:59;11.40;99.90
15160;DHT22;7680;48.800;9.680;2024-02-26T15:55:04;11.20;99.90
15160;DHT22;7680;48.800;9.680;2024-02-26T16:00:08;11.20;99.90
15160;DHT22;7680;48.800;9.680;2024-02-26T16:05:14;11.20;99.90
15160;DHT22;7680;48.800;9.680;2024-02-26T16:10:18;11.10;99.90
15160;DHT22;7680;48.800;9.680;2024-02-26T16:15:21;11.10;99.90
15160;DHT22;7680;48.800;9.680;2024-02-26T16:20:26;10.90;99.90
15160;DHT22;7680;48.800;9.680;2024-02-26T16:25:31;10.90;99.90
15160;DHT22;7680;48.800;9.680;2024-02-26T16:30:34;10.80;99.90
15160;DHT22;7680;48.800;9.680;2024-02-26T16:35:39;10.70;99.90
15160;DHT22;7680;48.800;9.680;2024-02-26T16:40:42;10.70;99.90
15160;DHT22;7680;48.800;9.680;2024-02-26T16:45:45;10.60;99.90
15160;DHT22;7680;48.800;9.680;2024-02-26T16:50:51;10.50;99.90
15160;DHT22;7680;48.800;9.680;2024-02-26T16:55:55;10.40;99.90
15160;DHT22;7680;48.800;9.680;2024-02-26T17:00:59;10.50;99.90
15160;DHT22;7680;48.800;9.680;2024-02-26T17:06:08;10.30;99.90
15160;DHT22;7680;48.800;9.680;2024-02-26T17:11:12;10.30;99.90
15160;DHT22;7680;48.800;9.680;2024-02-26T17:16:17;10.20;99.90
15160;DHT22;7680;48.800;9.680;2024-02-26T17:21:22;10.10;99.90
15160;DHT22;7680;48.800;9.680;2024-02-26T17:26:25;10.10;99.90
15160;DHT22;7680;48.800;9.680;2024-02-26T17:31:29;10.00;99.90
15160;DHT22;7680;48.800;9.680;2024-02-26T17:36:33;9.90;99.90
15160;DHT22;7680;48.800;9.680;2024-02-26T17:41:37;9.80;99.90
15160;DHT22;7680;48.800;9.680;2024-02-26T17:46:40;9.80;99.90
15160;DHT22;7680;48.800;9.680;2024-02-26T17:51:44;9.70;99.90
15160;DHT22;7680;48.800;9.680;2024-02-26T17:56:47;9.70;99.90
15160;DHT22;7680;48.800;9.680;2024-02-26T18:01:53;9.60;99.90
15160;DHT22;7680;48.800;9.680;2024-02-26T18:06:57;9.50;99.90
15160;DHT22;7680;48.800;9.680;2024-02-26T18:12:02;9.30;99.90
15160;DHT22;7680;48.800;9.680;2024-02-26T18:17:06;9.20;99.90
15160;DHT22;7680;48.800;9.680;2024-02-26T18:22:10;9.20;99.90
15160;DHT22;7680;48.800;9.680;2024-02-26T18:27:14;9.10;99.90
15160;DHT22;7680;48.800;9.680;2024-02-26T18:32:17;9.10;99.90
15160;DHT22;7680;48.800;9.680;2024-02-26T18:37:22;9.10;99.90
15160;DHT22;7680;48.800;9.680;2024-02-26T18:42:26;9.00;99.90
15160;DHT22;7680;48.800;9.680;2024-02-26T18:47:31;8.90;99.90
15160;DHT22;7680;48.800;9.680;2024-02-26T18:52:36;8.80;99.90
15160;DHT22;7680;48.800;9.680;2024-02-26T18:57:41;8.80;99.90
15160;DHT22;7680;48.800;9.680;2024-02-26T19:02:44;8.80;99.90
15160;DHT22;7680;48.800;9.680;2024-02-26T19:07:49;8.70;99.90
15160;DHT22;7680;48.800;9.680;2024-02-26T19:12:56;8.70;99.90
15160;DHT22;7680;48.800;9.680;2024-02-26T19:18:00;8.60;99.90
15160;DHT22;7680;48.800;9.680;2024-02-26T19:23:05;8.60;99.90
15160;DHT22;7680;48.800;9.680;2024-02-26T19:28:08;8.50;99.90
15160;DHT22;7680;48.800;9.680;2024-02-26T19:33:12;8.40;99.90
15160;DHT22;7680;48.800;9.680;2024-02-26T19:38:16;8.40;99.90
15160;DHT22;7680;48.800;9.680;2024-02-26T19:43:20;8.40;99.90
15160;DHT22;7680;48.800;9.680;2024-02-26T19:48:23;8.40;99.90
15160;DHT22;7680;48.800;9.680;2024-02-26T19:53:28;8.40;99.90
15160;DHT22;7680;48.800;9.680;2024-02-26T19:58:31;8.40;99.90
15160;DHT22;7680;48.800;9.680;2024-02-26T20:03:34;8.40;99.90
15160;DHT22;7680;48.800;9.680;2024-02-26T20:08:39;8.50;99.90
15160;DHT22;7680;48.800;9.680;2024-02-26T20:13:42;8.40;99.90
15160;DHT22;7680;48.800;9.680;2024-02-26T20:18:45;8.30;99.90
15160;DHT22;7680;48.800;9.680;2024-02-26T20:23:51;8.30;99.90
15160;DHT22;7680;48.800;9.680;2024-02-26T20:28:55;8.30;99.90
15160;DHT22;7680;48.800;9.680;2024-02-26T20:33:58;8.20;99.90
15160;DHT22;7680;48.800;9.680;2024-02-26T20:39:04;8.20;99.90
15160;DHT22;7680;48.800;9.680;2024-02-26T20:44:07;8.10;99.90
15160;DHT22;7680;48.800;9.680;2024-02-26T20:49:10;8.10;99.90
15160;DHT22;7680;48.800;9.680;2024-02-26T20:54:15;8.20;99.90
15160;DHT22;7680;48.800;9.680;2024-02-26T20:59:19;8.00;99.90
15160;DHT22;7680;48.800;9.680;2024-02-26T21:04:22;7.90;99.90
15160;DHT22;7680;48.800;9.680;2024-02-26T21:09:27;7.80;99.90
15160;DHT22;7680;48.800;9.680;2024-02-26T21:14:30;7.70;99.90
15160;DHT22;7680;48.800;9.680;2024-02-26T21:19:33;7.80;99.90
15160;DHT22;7680;48.800;9.680;2024-02-26T21:24:39;7.80;99.90
15160;DHT22;7680;48.800;9.680;2024-02-26T21:29:42;7.70;99.90
15160;DHT22;7680;48.800;9.680;2024-02-26T21:34:45;7.70;99.90
15160;DHT22;7680;48.800;9.680;2024-02-26T21:39:50;7.60;99.90
15160;DHT22;7680;48.800;9.680;2024-02-26T21:44:53;7.60;99.90
15160;DHT22;7680;48.800;9.680;2024-02-26T21:49:56;7.70;99.90
15160;DHT22;7680;48.800;9.680;2024-02-26T21:55:01;7.60;99.90
15160;DHT22;7680;48.800;9.680;2024-02-26T22:00:05;7.50;99.90
15160;DHT22;7680;48.800;9.680;2024-02-26T22:05:09;7.50;99.90
15160;DHT22;7680;48.800;9.680;2024-02-26T22:10:14;7.50;99.90
15160;DHT22;7680;48.800;9.680;2024-02-26T22:15:17;7.50;99.90
15160;DHT22;7680;48.800;9.680;2024-02-26T22:20:22;7.50;99.90
15160;DHT22;7680;48.800;9.680;2024-02-26T22:25:27;7.50;99.90
15160;DHT22;7680;48.800;9.680;2024-02-26T22:30:31;7.40;99.90
15160;DHT22;7680;48.800;9.680;2024-02-26T22:35:35;7.40;99.90
15160;DHT22;7680;48.800;9.680;2024-02-26T22:40:39;7.30;99.90
15160;DHT22;7680;48.800;9.680;2024-02-26T22:45:43;7.30;99.90
15160;DHT22;7680;48.800;9.680;2024-02-26T22:50:46;7.40;99.90
15160;DHT22;7680;48.800;9.680;2024-02-26T22:55:51;7.30;99.90
15160;DHT22;7680;48.800;9.680;2024-02-26T23:00:54;7.30;99.90
15160;DHT22;7680;48.800;9.680;2024-02-26T23:05:57;7.30;99.90
15160;DHT22;7680;48.800;9.680;2024-02-26T23:11:02;7.30;99.90
15160;DHT22;7680;48.800;9.680;2024-02-26T23:16:06;7.30;99.90
15160;DHT22;7680;48.800;9.680;2024-02-26T23:21:09;7.20;99.90
15160;DHT22;7680;48.800;9.680;2024-02-26T23:26:13;7.10;99.90
15160;DHT22;7680;48.800;9.680;2024-02-26T23:31:18;7.10;99.90
15160;DHT22;7680;48.800;9.680;2024-02-26T23:36:22;7.10;99.90
15160;DHT22;7680;48.800;9.680;2024-02-26T23:41:28;7.10;99.90
15160;DHT22;7680;48.800;9.680;2024-02-26T23:46:34;7.10;99.90
15160;DHT22;7680;48.800;9.680;2024-02-26T23:51:38;7.20;99.90
15160;DHT22;7680;48.800;9.680;2024-02-26T23:56:42;7.20;99.90
